sensor_id;sensor_type;location;lat;lon;timestamp;P1;durP1;ratioP1;P2;durP2;ratioP2
79493;SDS011;68951;53.130;18.104;2023-06-05T00:02:27;3.90;;;0.70;;
79493;SDS011;68951;53.130;18.104;2023-06-05T00:04:54;3.30;;;0.90;;
79493;SDS011;68951;53.130;18.104;2023-06-05T00:07:21;3.90;;;0.80;;
79493;SDS011;68951;53.130;18.104;2023-06-05T00:09:48;3.10;;;0.60;;
79493;SDS011;68951;53.130;18.104;2023-06-05T00:12:15;3.90;;;0.80;;
79493;SDS011;68951;53.130;18.104;2023-06-05T00:14:43;3.80;;;0.70;;
79493;SDS011;68951;53.130;18.104;2023-06-05T00:17:10;3.80;;;0.90;;
79493;SDS011;68951;53.130;18.104;2023-06-05T00:19:38;4.10;;;1.00;;
79493;SDS011;68951;53.130;18.104;2023-06-05T00:22:04;4.10;;;0.80;;
79493;SDS011;68951;53.130;18.104;2023-06-05T00:24:31;5.00;;;1.00;;
79493;SDS011;68951;53.130;18.104;2023-06-05T00:26:58;4.70;;;0.80;;
79493;SDS011;68951;53.130;18.104;2023-06-05T00:29:25;3.20;;;0.90;;
79493;SDS011;68951;53.130;18.104;2023-06-05T00:31:51;3.60;;;0.90;;
79493;SDS011;68951;53.130;18.104;2023-06-05T00:34:20;3.20;;;0.70;;
79493;SDS011;68951;53.130;18.104;2023-06-05T00:36:46;4.30;;;1.00;;
79493;SDS011;68951;53.130;18.104;2023-06-05T00:39:17;4.20;;;0.70;;
79493;SDS011;68951;53.130;18.104;2023-06-05T00:41:45;3.30;;;0.70;;
79493;SDS011;68951;53.130;18.104;2023-06-05T00:44:12;3.90;;;0.70;;
79493;SDS011;68951;53.130;18.104;2023-06-05T00:46:39;3.90;;;1.10;;
79493;SDS011;68951;53.130;18.104;2023-06-05T00:49:07;3.40;;;0.70;;
79493;SDS011;68951;53.130;18.104;2023-06-05T00:51:35;3.50;;;0.70;;
79493;SDS011;68951;53.130;18.104;2023-06-05T00:54:03;3.10;;;0.70;;
79493;SDS011;68951;53.130;18.104;2023-06-05T00:56:31;3.30;;;0.90;;
79493;SDS011;68951;53.130;18.104;2023-06-05T00:59:02;4.60;;;0.80;;
79493;SDS011;68951;53.130;18.104;2023-06-05T01:01:29;3.10;;;0.80;;
79493;SDS011;68951;53.130;18.104;2023-06-05T01:03:56;3.20;;;0.80;;
79493;SDS011;68951;53.130;18.104;2023-06-05T01:06:30;3.80;;;1.00;;
79493;SDS011;68951;53.130;18.104;2023-06-05T01:08:57;4.40;;;0.90;;
79493;SDS011;68951;53.130;18.104;2023-06-05T01:11:56;3.40;;;0.80;;
79493;SDS011;68951;53.130;18.104;2023-06-05T01:14:30;4.10;;;0.70;;
79493;SDS011;68951;53.130;18.104;2023-06-05T01:17:01;3.00;;;0.60;;
79493;SDS011;68951;53.130;18.104;2023-06-05T01:19:30;3.80;;;0.70;;
79493;SDS011;68951;53.130;18.104;2023-06-05T01:21:58;4.00;;;0.90;;
79493;SDS011;68951;53.130;18.104;2023-06-05T01:24:26;3.60;;;0.90;;
79493;SDS011;68951;53.130;18.104;2023-06-05T01:29:40;3.90;;;0.90;;
79493;SDS011;68951;53.130;18.104;2023-06-05T01:32:23;3.70;;;0.80;;
79493;SDS011;68951;53.130;18.104;2023-06-05T01:34:57;4.90;;;0.90;;
79493;SDS011;68951;53.130;18.104;2023-06-05T01:37:25;3.90;;;1.30;;
79493;SDS011;68951;53.130;18.104;2023-06-05T01:39:53;4.70;;;1.00;;
79493;SDS011;68951;53.130;18.104;2023-06-05T01:42:23;3.80;;;0.80;;
79493;SDS011;68951;53.130;18.104;2023-06-05T01:44:51;3.50;;;0.90;;
79493;SDS011;68951;53.130;18.104;2023-06-05T01:47:19;4.20;;;0.80;;
79493;SDS011;68951;53.130;18.104;2023-06-05T01:49:47;3.70;;;1.10;;
79493;SDS011;68951;53.130;18.104;2023-06-05T01:52:14;3.80;;;1.00;;
79493;SDS011;68951;53.130;18.104;2023-06-05T01:54:41;4.50;;;1.10;;
79493;SDS011;68951;53.130;18.104;2023-06-05T01:57:08;4.50;;;1.10;;
79493;SDS011;68951;53.130;18.104;2023-06-05T01:59:35;3.80;;;0.90;;
79493;SDS011;68951;53.130;18.104;2023-06-05T02:02:02;3.30;;;1.00;;
79493;SDS011;68951;53.130;18.104;2023-06-05T02:04:30;3.50;;;0.90;;
79493;SDS011;68951;53.130;18.104;2023-06-05T02:06:56;3.80;;;1.00;;
79493;SDS011;68951;53.130;18.104;2023-06-05T02:09:30;5.60;;;1.10;;
79493;SDS011;68951;53.130;18.104;2023-06-05T02:12:00;5.10;;;1.10;;
79493;SDS011;68951;53.130;18.104;2023-06-05T02:14:31;4.40;;;0.90;;
79493;SDS011;68951;53.130;18.104;2023-06-05T02:17:11;4.40;;;0.90;;
79493;SDS011;68951;53.130;18.104;2023-06-05T02:19:40;4.50;;;0.80;;
79493;SDS011;68951;53.130;18.104;2023-06-05T02:22:07;3.90;;;0.90;;
79493;SDS011;68951;53.130;18.104;2023-06-05T02:24:34;3.90;;;1.00;;
79493;SDS011;68951;53.130;18.104;2023-06-05T02:27:01;3.30;;;0.90;;
79493;SDS011;68951;53.130;18.104;2023-06-05T02:29:29;4.30;;;1.00;;
79493;SDS011;68951;53.130;18.104;2023-06-05T02:31:56;4.30;;;1.00;;
79493;SDS011;68951;53.130;18.104;2023-06-05T02:34:22;5.20;;;1.30;;
79493;SDS011;68951;53.130;18.104;2023-06-05T02:36:51;5.20;;;1.20;;
79493;SDS011;68951;53.130;18.104;2023-06-05T02:39:18;4.30;;;1.10;;
79493;SDS011;68951;53.130;18.104;2023-06-05T02:41:45;4.20;;;1.00;;
79493;SDS011;68951;53.130;18.104;2023-06-05T02:44:12;4.00;;;1.10;;
79493;SDS011;68951;53.130;18.104;2023-06-05T02:46:39;3.50;;;1.20;;
79493;SDS011;68951;53.130;18.104;2023-06-05T02:49:06;4.80;;;1.20;;
79493;SDS011;68951;53.130;18.104;2023-06-05T02:51:33;5.30;;;1.20;;
79493;SDS011;68951;53.130;18.104;2023-06-05T02:53:59;4.10;;;1.00;;
79493;SDS011;68951;53.130;18.104;2023-06-05T02:56:27;6.90;;;1.20;;
79493;SDS011;68951;53.130;18.104;2023-06-05T02:58:54;4.00;;;1.30;;
79493;SDS011;68951;53.130;18.104;2023-06-05T03:01:23;4.60;;;1.10;;
79493;SDS011;68951;53.130;18.104;2023-06-05T03:03:51;4.00;;;1.00;;
79493;SDS011;68951;53.130;18.104;2023-06-05T03:06:19;5.60;;;1.10;;
79493;SDS011;68951;53.130;18.104;2023-06-05T03:08:45;4.40;;;0.70;;
79493;SDS011;68951;53.130;18.104;2023-06-05T03:11:12;5.00;;;1.20;;
79493;SDS011;68951;53.130;18.104;2023-06-05T03:13:39;5.20;;;1.00;;
79493;SDS011;68951;53.130;18.104;2023-06-05T03:16:06;5.10;;;1.20;;
79493;SDS011;68951;53.130;18.104;2023-06-05T03:18:33;4.20;;;1.50;;
79493;SDS011;68951;53.130;18.104;2023-06-05T03:21:00;4.90;;;1.10;;
79493;SDS011;68951;53.130;18.104;2023-06-05T03:23:28;5.10;;;1.20;;
79493;SDS011;68951;53.130;18.104;2023-06-05T03:25:55;10.90;;;1.40;;
79493;SDS011;68951;53.130;18.104;2023-06-05T03:28:23;6.10;;;1.50;;
79493;SDS011;68951;53.130;18.104;2023-06-05T03:30:50;6.00;;;1.30;;
79493;SDS011;68951;53.130;18.104;2023-06-05T03:33:17;5.40;;;1.10;;
79493;SDS011;68951;53.130;18.104;2023-06-05T03:35:44;6.30;;;1.60;;
79493;SDS011;68951;53.130;18.104;2023-06-05T03:38:13;6.00;;;1.90;;
79493;SDS011;68951;53.130;18.104;2023-06-05T03:40:41;5.20;;;1.40;;
79493;SDS011;68951;53.130;18.104;2023-06-05T03:43:08;5.30;;;1.40;;
79493;SDS011;68951;53.130;18.104;2023-06-05T03:45:36;7.80;;;1.80;;
79493;SDS011;68951;53.130;18.104;2023-06-05T03:48:06;5.50;;;1.60;;
79493;SDS011;68951;53.130;18.104;2023-06-05T03:50:33;7.60;;;1.80;;
79493;SDS011;68951;53.130;18.104;2023-06-05T03:53:04;5.00;;;1.20;;
79493;SDS011;68951;53.130;18.104;2023-06-05T03:55:32;5.30;;;1.30;;
79493;SDS011;68951;53.130;18.104;2023-06-05T03:58:12;6.50;;;1.70;;
79493;SDS011;68951;53.130;18.104;2023-06-05T04:00:41;5.10;;;1.40;;
79493;SDS011;68951;53.130;18.104;2023-06-05T04:03:10;5.00;;;1.30;;
79493;SDS011;68951;53.130;18.104;2023-06-05T04:05:41;5.50;;;1.80;;
79493;SDS011;68951;53.130;18.104;2023-06-05T04:08:09;6.80;;;1.50;;
79493;SDS011;68951;53.130;18.104;2023-06-05T04:10:36;6.00;;;1.10;;
79493;SDS011;68951;53.130;18.104;2023-06-05T04:13:03;6.60;;;1.40;;
79493;SDS011;68951;53.130;18.104;2023-06-05T04:15:30;4.00;;;1.40;;
79493;SDS011;68951;53.130;18.104;2023-06-05T04:17:57;6.10;;;1.30;;
79493;SDS011;68951;53.130;18.104;2023-06-05T04:20:24;7.90;;;1.50;;
79493;SDS011;68951;53.130;18.104;2023-06-05T04:22:51;7.20;;;1.70;;
79493;SDS011;68951;53.130;18.104;2023-06-05T04:25:18;6.90;;;1.70;;
79493;SDS011;68951;53.130;18.104;2023-06-05T04:27:47;6.90;;;1.60;;
79493;SDS011;68951;53.130;18.104;2023-06-05T04:30:17;5.30;;;1.30;;
79493;SDS011;68951;53.130;18.104;2023-06-05T04:32:43;5.90;;;1.50;;
79493;SDS011;68951;53.130;18.104;2023-06-05T04:35:20;6.30;;;1.90;;
79493;SDS011;68951;53.130;18.104;2023-06-05T04:37:48;5.00;;;1.50;;
79493;SDS011;68951;53.130;18.104;2023-06-05T04:40:16;5.90;;;1.70;;
79493;SDS011;68951;53.130;18.104;2023-06-05T04:42:44;5.80;;;1.70;;
79493;SDS011;68951;53.130;18.104;2023-06-05T04:45:11;4.60;;;1.90;;
79493;SDS011;68951;53.130;18.104;2023-06-05T04:47:38;5.40;;;2.00;;
79493;SDS011;68951;53.130;18.104;2023-06-05T04:50:05;5.50;;;2.00;;
79493;SDS011;68951;53.130;18.104;2023-06-05T04:52:34;6.80;;;2.20;;
79493;SDS011;68951;53.130;18.104;2023-06-05T04:55:02;8.60;;;2.10;;
79493;SDS011;68951;53.130;18.104;2023-06-05T04:57:29;5.40;;;1.90;;
79493;SDS011;68951;53.130;18.104;2023-06-05T04:59:57;6.30;;;1.40;;
79493;SDS011;68951;53.130;18.104;2023-06-05T05:02:24;6.00;;;1.60;;
79493;SDS011;68951;53.130;18.104;2023-06-05T05:04:51;5.60;;;1.90;;
79493;SDS011;68951;53.130;18.104;2023-06-05T05:07:18;6.10;;;1.60;;
79493;SDS011;68951;53.130;18.104;2023-06-05T05:09:45;3.50;;;1.40;;
79493;SDS011;68951;53.130;18.104;2023-06-05T05:12:12;4.80;;;1.70;;
79493;SDS011;68951;53.130;18.104;2023-06-05T05:14:39;5.00;;;2.10;;
79493;SDS011;68951;53.130;18.104;2023-06-05T05:17:06;6.00;;;2.00;;
79493;SDS011;68951;53.130;18.104;2023-06-05T05:19:33;6.00;;;2.10;;
79493;SDS011;68951;53.130;18.104;2023-06-05T05:22:00;5.50;;;2.10;;
79493;SDS011;68951;53.130;18.104;2023-06-05T05:24:27;5.80;;;2.00;;
79493;SDS011;68951;53.130;18.104;2023-06-05T05:26:53;6.60;;;2.40;;
79493;SDS011;68951;53.130;18.104;2023-06-05T05:29:21;6.80;;;1.90;;
79493;SDS011;68951;53.130;18.104;2023-06-05T05:31:48;5.40;;;2.20;;
79493;SDS011;68951;53.130;18.104;2023-06-05T05:34:15;4.60;;;2.10;;
79493;SDS011;68951;53.130;18.104;2023-06-05T05:36:42;5.90;;;2.00;;
79493;SDS011;68951;53.130;18.104;2023-06-05T05:39:09;4.70;;;1.80;;
79493;SDS011;68951;53.130;18.104;2023-06-05T05:41:36;4.60;;;1.90;;
79493;SDS011;68951;53.130;18.104;2023-06-05T05:44:03;6.90;;;2.00;;
79493;SDS011;68951;53.130;18.104;2023-06-05T05:46:30;6.30;;;1.90;;
79493;SDS011;68951;53.130;18.104;2023-06-05T05:48:56;10.00;;;2.10;;
79493;SDS011;68951;53.130;18.104;2023-06-05T05:51:23;6.60;;;2.10;;
79493;SDS011;68951;53.130;18.104;2023-06-05T05:53:50;9.10;;;2.60;;
79493;SDS011;68951;53.130;18.104;2023-06-05T05:56:17;8.50;;;2.20;;
79493;SDS011;68951;53.130;18.104;2023-06-05T05:58:44;8.50;;;2.70;;
79493;SDS011;68951;53.130;18.104;2023-06-05T06:01:11;9.60;;;3.00;;
79493;SDS011;68951;53.130;18.104;2023-06-05T06:03:39;11.50;;;3.30;;
79493;SDS011;68951;53.130;18.104;2023-06-05T06:06:06;10.30;;;3.10;;
79493;SDS011;68951;53.130;18.104;2023-06-05T06:08:34;7.00;;;2.50;;
79493;SDS011;68951;53.130;18.104;2023-06-05T06:11:01;9.60;;;3.20;;
79493;SDS011;68951;53.130;18.104;2023-06-05T06:13:32;14.10;;;3.80;;
79493;SDS011;68951;53.130;18.104;2023-06-05T06:16:00;7.30;;;1.80;;
79493;SDS011;68951;53.130;18.104;2023-06-05T06:18:29;8.90;;;3.20;;
79493;SDS011;68951;53.130;18.104;2023-06-05T06:20:56;8.40;;;2.50;;
79493;SDS011;68951;53.130;18.104;2023-06-05T06:23:22;9.30;;;3.50;;
79493;SDS011;68951;53.130;18.104;2023-06-05T06:25:49;7.50;;;2.70;;
79493;SDS011;68951;53.130;18.104;2023-06-05T06:28:18;8.90;;;3.10;;
79493;SDS011;68951;53.130;18.104;2023-06-05T06:30:46;11.30;;;3.80;;
79493;SDS011;68951;53.130;18.104;2023-06-05T06:33:13;8.70;;;2.10;;
79493;SDS011;68951;53.130;18.104;2023-06-05T06:35:39;11.00;;;2.90;;
79493;SDS011;68951;53.130;18.104;2023-06-05T06:38:06;12.00;;;3.30;;
79493;SDS011;68951;53.130;18.104;2023-06-05T06:40:33;8.00;;;3.10;;
79493;SDS011;68951;53.130;18.104;2023-06-05T06:43:00;8.40;;;2.10;;
79493;SDS011;68951;53.130;18.104;2023-06-05T06:45:27;8.80;;;2.60;;
79493;SDS011;68951;53.130;18.104;2023-06-05T06:47:54;11.00;;;3.20;;
79493;SDS011;68951;53.130;18.104;2023-06-05T06:50:21;9.20;;;2.50;;
79493;SDS011;68951;53.130;18.104;2023-06-05T06:52:47;9.50;;;2.50;;
79493;SDS011;68951;53.130;18.104;2023-06-05T06:55:14;11.70;;;2.20;;
79493;SDS011;68951;53.130;18.104;2023-06-05T06:57:41;10.30;;;3.10;;
79493;SDS011;68951;53.130;18.104;2023-06-05T07:00:08;8.10;;;2.30;;
79493;SDS011;68951;53.130;18.104;2023-06-05T07:02:36;8.50;;;3.10;;
79493;SDS011;68951;53.130;18.104;2023-06-05T07:05:06;7.70;;;2.50;;
79493;SDS011;68951;53.130;18.104;2023-06-05T07:07:33;8.70;;;2.60;;
79493;SDS011;68951;53.130;18.104;2023-06-05T07:10:00;7.60;;;2.40;;
79493;SDS011;68951;53.130;18.104;2023-06-05T07:12:27;10.10;;;2.50;;
79493;SDS011;68951;53.130;18.104;2023-06-05T07:14:54;7.60;;;2.10;;
79493;SDS011;68951;53.130;18.104;2023-06-05T07:17:21;9.70;;;2.30;;
79493;SDS011;68951;53.130;18.104;2023-06-05T07:19:48;10.70;;;2.50;;
79493;SDS011;68951;53.130;18.104;2023-06-05T07:22:15;6.70;;;2.30;;
79493;SDS011;68951;53.130;18.104;2023-06-05T07:24:42;9.10;;;2.60;;
79493;SDS011;68951;53.130;18.104;2023-06-05T07:27:09;8.40;;;2.70;;
79493;SDS011;68951;53.130;18.104;2023-06-05T07:29:36;6.80;;;2.10;;
79493;SDS011;68951;53.130;18.104;2023-06-05T07:32:04;5.70;;;1.90;;
79493;SDS011;68951;53.130;18.104;2023-06-05T07:34:33;9.30;;;2.20;;
79493;SDS011;68951;53.130;18.104;2023-06-05T07:37:01;7.10;;;2.10;;
79493;SDS011;68951;53.130;18.104;2023-06-05T07:39:28;6.50;;;1.60;;
79493;SDS011;68951;53.130;18.104;2023-06-05T07:41:55;3.90;;;1.50;;
79493;SDS011;68951;53.130;18.104;2023-06-05T07:44:22;6.70;;;2.30;;
79493;SDS011;68951;53.130;18.104;2023-06-05T07:46:50;5.80;;;2.10;;
79493;SDS011;68951;53.130;18.104;2023-06-05T07:49:18;5.30;;;1.70;;
79493;SDS011;68951;53.130;18.104;2023-06-05T07:51:46;5.90;;;1.90;;
79493;SDS011;68951;53.130;18.104;2023-06-05T07:54:15;6.40;;;2.10;;
79493;SDS011;68951;53.130;18.104;2023-06-05T07:56:42;7.10;;;2.60;;
79493;SDS011;68951;53.130;18.104;2023-06-05T07:59:10;7.30;;;2.20;;
79493;SDS011;68951;53.130;18.104;2023-06-05T08:01:36;8.50;;;1.30;;
79493;SDS011;68951;53.130;18.104;2023-06-05T08:04:04;5.80;;;1.70;;
79493;SDS011;68951;53.130;18.104;2023-06-05T08:06:32;9.30;;;1.60;;
79493;SDS011;68951;53.130;18.104;2023-06-05T08:08:59;7.50;;;2.00;;
79493;SDS011;68951;53.130;18.104;2023-06-05T08:11:26;6.40;;;1.20;;
79493;SDS011;68951;53.130;18.104;2023-06-05T08:13:56;4.20;;;1.00;;
79493;SDS011;68951;53.130;18.104;2023-06-05T08:16:23;3.90;;;0.90;;
79493;SDS011;68951;53.130;18.104;2023-06-05T08:18:50;3.60;;;1.10;;
79493;SDS011;68951;53.130;18.104;2023-06-05T08:21:16;5.20;;;1.20;;
79493;SDS011;68951;53.130;18.104;2023-06-05T08:23:43;4.50;;;1.00;;
79493;SDS011;68951;53.130;18.104;2023-06-05T08:26:10;3.60;;;0.80;;
79493;SDS011;68951;53.130;18.104;2023-06-05T08:28:38;4.60;;;1.20;;
79493;SDS011;68951;53.130;18.104;2023-06-05T08:31:07;5.80;;;1.50;;
79493;SDS011;68951;53.130;18.104;2023-06-05T08:33:35;3.30;;;0.90;;
79493;SDS011;68951;53.130;18.104;2023-06-05T08:36:03;4.00;;;1.00;;
79493;SDS011;68951;53.130;18.104;2023-06-05T08:38:32;5.40;;;0.70;;
79493;SDS011;68951;53.130;18.104;2023-06-05T08:41:03;3.80;;;1.20;;
79493;SDS011;68951;53.130;18.104;2023-06-05T08:43:38;5.10;;;1.60;;
79493;SDS011;68951;53.130;18.104;2023-06-05T08:46:07;4.50;;;1.10;;
79493;SDS011;68951;53.130;18.104;2023-06-05T08:48:40;4.80;;;1.30;;
79493;SDS011;68951;53.130;18.104;2023-06-05T08:51:13;7.10;;;1.30;;
79493;SDS011;68951;53.130;18.104;2023-06-05T08:53:53;4.30;;;1.00;;
79493;SDS011;68951;53.130;18.104;2023-06-05T08:56:24;4.60;;;1.50;;
79493;SDS011;68951;53.130;18.104;2023-06-05T08:58:53;5.20;;;1.60;;
79493;SDS011;68951;53.130;18.104;2023-06-05T09:01:21;6.60;;;1.60;;
79493;SDS011;68951;53.130;18.104;2023-06-05T09:03:48;4.70;;;1.10;;
79493;SDS011;68951;53.130;18.104;2023-06-05T09:06:15;5.90;;;1.60;;
79493;SDS011;68951;53.130;18.104;2023-06-05T09:08:41;4.30;;;1.40;;
79493;SDS011;68951;53.130;18.104;2023-06-05T09:11:24;8.60;;;1.90;;
79493;SDS011;68951;53.130;18.104;2023-06-05T09:14:00;6.30;;;1.60;;
79493;SDS011;68951;53.130;18.104;2023-06-05T09:16:38;4.30;;;1.30;;
79493;SDS011;68951;53.130;18.104;2023-06-05T09:19:06;4.90;;;1.40;;
79493;SDS011;68951;53.130;18.104;2023-06-05T09:21:34;4.90;;;1.70;;
79493;SDS011;68951;53.130;18.104;2023-06-05T09:24:17;4.40;;;1.40;;
79493;SDS011;68951;53.130;18.104;2023-06-05T09:29:20;5.00;;;1.30;;
79493;SDS011;68951;53.130;18.104;2023-06-05T09:31:49;3.60;;;1.30;;
79493;SDS011;68951;53.130;18.104;2023-06-05T09:34:30;5.10;;;1.60;;
79493;SDS011;68951;53.130;18.104;2023-06-05T09:37:05;7.30;;;1.90;;
79493;SDS011;68951;53.130;18.104;2023-06-05T09:39:38;4.60;;;1.60;;
79493;SDS011;68951;53.130;18.104;2023-06-05T09:42:06;5.50;;;2.00;;
79493;SDS011;68951;53.130;18.104;2023-06-05T09:44:34;5.00;;;1.50;;
79493;SDS011;68951;53.130;18.104;2023-06-05T09:47:05;6.00;;;1.80;;
79493;SDS011;68951;53.130;18.104;2023-06-05T09:52:09;11.70;;;2.00;;
79493;SDS011;68951;53.130;18.104;2023-06-05T09:54:38;9.30;;;2.00;;
79493;SDS011;68951;53.130;18.104;2023-06-05T09:57:08;5.60;;;2.10;;
79493;SDS011;68951;53.130;18.104;2023-06-05T09:59:51;7.10;;;1.90;;
79493;SDS011;68951;53.130;18.104;2023-06-05T10:02:32;4.60;;;1.60;;
79493;SDS011;68951;53.130;18.104;2023-06-05T10:05:03;4.00;;;1.20;;
79493;SDS011;68951;53.130;18.104;2023-06-05T10:07:36;4.60;;;1.60;;
79493;SDS011;68951;53.130;18.104;2023-06-05T10:10:06;4.80;;;1.20;;
79493;SDS011;68951;53.130;18.104;2023-06-05T10:12:35;6.30;;;1.80;;
79493;SDS011;68951;53.130;18.104;2023-06-05T10:15:03;4.40;;;2.00;;
79493;SDS011;68951;53.130;18.104;2023-06-05T10:17:33;6.40;;;2.00;;
79493;SDS011;68951;53.130;18.104;2023-06-05T10:20:03;8.50;;;1.80;;
79493;SDS011;68951;53.130;18.104;2023-06-05T10:22:34;6.60;;;1.80;;
79493;SDS011;68951;53.130;18.104;2023-06-05T10:25:06;6.10;;;2.10;;
79493;SDS011;68951;53.130;18.104;2023-06-05T10:33:41;5.60;;;1.80;;
79493;SDS011;68951;53.130;18.104;2023-06-05T10:39:30;4.00;;;1.90;;
79493;SDS011;68951;53.130;18.104;2023-06-05T10:41:57;5.20;;;1.90;;
79493;SDS011;68951;53.130;18.104;2023-06-05T10:44:43;5.40;;;1.90;;
79493;SDS011;68951;53.130;18.104;2023-06-05T10:50:31;5.40;;;1.60;;
79493;SDS011;68951;53.130;18.104;2023-06-05T10:52:58;5.70;;;1.90;;
79493;SDS011;68951;53.130;18.104;2023-06-05T10:55:26;5.20;;;1.80;;
79493;SDS011;68951;53.130;18.104;2023-06-05T10:58:12;7.80;;;2.30;;
79493;SDS011;68951;53.130;18.104;2023-06-05T11:01:15;5.00;;;2.00;;
79493;SDS011;68951;53.130;18.104;2023-06-05T11:03:58;5.70;;;1.70;;
79493;SDS011;68951;53.130;18.104;2023-06-05T11:06:27;4.10;;;1.90;;
79493;SDS011;68951;53.130;18.104;2023-06-05T11:09:13;3.90;;;1.70;;
79493;SDS011;68951;53.130;18.104;2023-06-05T11:12:00;5.20;;;1.80;;
79493;SDS011;68951;53.130;18.104;2023-06-05T11:14:45;4.20;;;1.60;;
79493;SDS011;68951;53.130;18.104;2023-06-05T11:17:32;4.50;;;2.30;;
79493;SDS011;68951;53.130;18.104;2023-06-05T11:20:02;5.50;;;2.10;;
79493;SDS011;68951;53.130;18.104;2023-06-05T11:25:26;5.60;;;2.00;;
79493;SDS011;68951;53.130;18.104;2023-06-05T11:30:28;4.60;;;1.80;;
79493;SDS011;68951;53.130;18.104;2023-06-05T11:33:12;3.50;;;1.60;;
79493;SDS011;68951;53.130;18.104;2023-06-05T11:35:43;4.50;;;1.70;;
79493;SDS011;68951;53.130;18.104;2023-06-05T11:38:15;4.00;;;1.50;;
79493;SDS011;68951;53.130;18.104;2023-06-05T11:40:47;4.10;;;1.70;;
79493;SDS011;68951;53.130;18.104;2023-06-05T11:43:15;3.60;;;1.80;;
79493;SDS011;68951;53.130;18.104;2023-06-05T11:45:49;4.90;;;2.10;;
79493;SDS011;68951;53.130;18.104;2023-06-05T11:48:16;4.80;;;2.20;;
79493;SDS011;68951;53.130;18.104;2023-06-05T11:51:03;5.70;;;1.80;;
79493;SDS011;68951;53.130;18.104;2023-06-05T11:53:32;5.50;;;2.10;;
79493;SDS011;68951;53.130;18.104;2023-06-05T11:55:59;9.90;;;2.50;;
79493;SDS011;68951;53.130;18.104;2023-06-05T11:58:31;7.40;;;2.30;;
79493;SDS011;68951;53.130;18.104;2023-06-05T12:01:08;4.60;;;1.60;;
79493;SDS011;68951;53.130;18.104;2023-06-05T12:03:39;4.20;;;2.10;;
79493;SDS011;68951;53.130;18.104;2023-06-05T12:06:06;6.20;;;2.10;;
79493;SDS011;68951;53.130;18.104;2023-06-05T12:08:33;5.00;;;2.50;;
79493;SDS011;68951;53.130;18.104;2023-06-05T12:11:03;4.60;;;2.20;;
79493;SDS011;68951;53.130;18.104;2023-06-05T12:13:50;4.40;;;2.20;;
79493;SDS011;68951;53.130;18.104;2023-06-05T12:19:02;5.30;;;2.50;;
79493;SDS011;68951;53.130;18.104;2023-06-05T12:21:39;7.40;;;2.30;;
79493;SDS011;68951;53.130;18.104;2023-06-05T12:24:06;4.20;;;2.20;;
79493;SDS011;68951;53.130;18.104;2023-06-05T12:26:56;4.70;;;2.50;;
79493;SDS011;68951;53.130;18.104;2023-06-05T12:29:35;8.30;;;2.90;;
79493;SDS011;68951;53.130;18.104;2023-06-05T12:32:20;6.90;;;2.70;;
79493;SDS011;68951;53.130;18.104;2023-06-05T12:34:50;4.70;;;1.90;;
79493;SDS011;68951;53.130;18.104;2023-06-05T12:37:26;10.40;;;2.80;;
79493;SDS011;68951;53.130;18.104;2023-06-05T12:40:05;7.00;;;2.30;;
79493;SDS011;68951;53.130;18.104;2023-06-05T12:42:37;9.20;;;2.50;;
79493;SDS011;68951;53.130;18.104;2023-06-05T12:45:05;5.70;;;2.60;;
79493;SDS011;68951;53.130;18.104;2023-06-05T12:47:33;4.10;;;1.70;;
79493;SDS011;68951;53.130;18.104;2023-06-05T12:50:02;8.20;;;2.20;;
79493;SDS011;68951;53.130;18.104;2023-06-05T12:52:30;5.20;;;2.40;;
79493;SDS011;68951;53.130;18.104;2023-06-05T12:54:58;5.40;;;2.00;;
79493;SDS011;68951;53.130;18.104;2023-06-05T12:57:25;7.00;;;2.10;;
79493;SDS011;68951;53.130;18.104;2023-06-05T12:59:53;4.60;;;2.10;;
79493;SDS011;68951;53.130;18.104;2023-06-05T13:02:21;6.50;;;2.50;;
79493;SDS011;68951;53.130;18.104;2023-06-05T13:04:47;4.60;;;2.20;;
79493;SDS011;68951;53.130;18.104;2023-06-05T13:07:14;4.00;;;2.10;;
79493;SDS011;68951;53.130;18.104;2023-06-05T13:09:43;5.70;;;2.40;;
79493;SDS011;68951;53.130;18.104;2023-06-05T13:12:10;5.80;;;2.40;;
79493;SDS011;68951;53.130;18.104;2023-06-05T13:14:37;5.00;;;2.50;;
79493;SDS011;68951;53.130;18.104;2023-06-05T13:17:04;7.60;;;3.10;;
79493;SDS011;68951;53.130;18.104;2023-06-05T13:19:31;6.40;;;2.20;;
79493;SDS011;68951;53.130;18.104;2023-06-05T13:21:58;5.20;;;2.30;;
79493;SDS011;68951;53.130;18.104;2023-06-05T13:24:24;4.20;;;1.90;;
79493;SDS011;68951;53.130;18.104;2023-06-05T13:26:51;5.40;;;2.30;;
79493;SDS011;68951;53.130;18.104;2023-06-05T13:29:18;5.10;;;2.60;;
79493;SDS011;68951;53.130;18.104;2023-06-05T13:31:45;3.30;;;1.70;;
79493;SDS011;68951;53.130;18.104;2023-06-05T13:34:13;5.90;;;2.70;;
79493;SDS011;68951;53.130;18.104;2023-06-05T13:36:39;4.40;;;2.30;;
79493;SDS011;68951;53.130;18.104;2023-06-05T13:39:06;5.90;;;2.60;;
79493;SDS011;68951;53.130;18.104;2023-06-05T13:41:35;5.20;;;2.20;;
79493;SDS011;68951;53.130;18.104;2023-06-05T13:44:01;4.70;;;2.40;;
79493;SDS011;68951;53.130;18.104;2023-06-05T13:46:29;5.50;;;2.40;;
79493;SDS011;68951;53.130;18.104;2023-06-05T13:48:56;5.60;;;2.20;;
79493;SDS011;68951;53.130;18.104;2023-06-05T13:51:26;5.90;;;2.70;;
79493;SDS011;68951;53.130;18.104;2023-06-05T13:53:54;6.20;;;2.90;;
79493;SDS011;68951;53.130;18.104;2023-06-05T13:56:23;4.70;;;2.30;;
79493;SDS011;68951;53.130;18.104;2023-06-05T13:58:50;4.30;;;2.10;;
79493;SDS011;68951;53.130;18.104;2023-06-05T14:01:17;4.40;;;2.30;;
79493;SDS011;68951;53.130;18.104;2023-06-05T14:03:43;4.30;;;2.50;;
79493;SDS011;68951;53.130;18.104;2023-06-05T14:06:12;5.50;;;2.80;;
79493;SDS011;68951;53.130;18.104;2023-06-05T14:08:39;6.30;;;2.50;;
79493;SDS011;68951;53.130;18.104;2023-06-05T14:11:06;5.80;;;2.30;;
79493;SDS011;68951;53.130;18.104;2023-06-05T14:13:33;5.80;;;2.50;;
79493;SDS011;68951;53.130;18.104;2023-06-05T14:15:59;4.70;;;2.70;;
79493;SDS011;68951;53.130;18.104;2023-06-05T14:18:26;5.80;;;2.70;;
79493;SDS011;68951;53.130;18.104;2023-06-05T14:20:53;5.40;;;2.10;;
79493;SDS011;68951;53.130;18.104;2023-06-05T14:23:20;5.50;;;2.20;;
79493;SDS011;68951;53.130;18.104;2023-06-05T14:25:50;5.30;;;2.10;;
79493;SDS011;68951;53.130;18.104;2023-06-05T14:28:17;5.20;;;2.30;;
79493;SDS011;68951;53.130;18.104;2023-06-05T14:30:46;4.80;;;2.20;;
79493;SDS011;68951;53.130;18.104;2023-06-05T14:33:13;4.80;;;2.40;;
79493;SDS011;68951;53.130;18.104;2023-06-05T14:35:40;7.10;;;2.60;;
79493;SDS011;68951;53.130;18.104;2023-06-05T14:38:07;5.30;;;2.20;;
79493;SDS011;68951;53.130;18.104;2023-06-05T14:40:34;6.30;;;2.30;;
79493;SDS011;68951;53.130;18.104;2023-06-05T14:43:01;4.90;;;2.60;;
79493;SDS011;68951;53.130;18.104;2023-06-05T14:45:27;5.30;;;2.10;;
79493;SDS011;68951;53.130;18.104;2023-06-05T14:47:54;4.80;;;2.10;;
79493;SDS011;68951;53.130;18.104;2023-06-05T14:50:21;6.70;;;2.60;;
79493;SDS011;68951;53.130;18.104;2023-06-05T14:52:48;3.80;;;2.00;;
79493;SDS011;68951;53.130;18.104;2023-06-05T14:55:15;5.40;;;2.40;;
79493;SDS011;68951;53.130;18.104;2023-06-05T14:57:42;5.00;;;2.10;;
79493;SDS011;68951;53.130;18.104;2023-06-05T15:00:09;7.00;;;2.10;;
79493;SDS011;68951;53.130;18.104;2023-06-05T15:02:37;4.60;;;1.90;;
79493;SDS011;68951;53.130;18.104;2023-06-05T15:05:05;6.80;;;2.60;;
79493;SDS011;68951;53.130;18.104;2023-06-05T15:07:39;7.40;;;2.30;;
79493;SDS011;68951;53.130;18.104;2023-06-05T15:10:09;4.80;;;2.40;;
79493;SDS011;68951;53.130;18.104;2023-06-05T15:12:39;5.30;;;2.20;;
79493;SDS011;68951;53.130;18.104;2023-06-05T15:15:07;4.40;;;1.90;;